Felipe Correia

Olheiro-Chefe - Maritimo
23 Abr 2028
Domingo
Processo

Personalidade

Adaptabilidade (1) Ambição (17) Controvérsia (18) Lealdade (2) Pressão (17) Profissionalismo (12) Espírito Esportivo (16) Temperamento (18)

Perfil

Estilo de Treinamento Democrático
Licença Continental C
Determinação 11
Gestão de Pessoas 11
Motivação 10
Disciplina 8
Satisfação no Trabalho
100%
Fadiga
0%
Função Olheiro-Chefe
Salário 49.8K p/s
Contrato 14.03.2030

Desempenho

Comportamento Bom
Eficácia do Treinamento
40%
Desenvolvimento do Jogador
35%
Prevenção de Lesões
35%
Implementação Tática
35%

Eventos Recentes

Avaliou um jogador agora
Participou de uma reunião de recrutamento agora
Participou de uma reunião de recrutamento agora
Recomendou um alvo de transferência agora
Recomendou um alvo de transferência agora
Recomendou um alvo de transferência agora
Recomendou um alvo de transferência agora
Avaliou um jogador agora

Monitorando agora

180
Jogador Clube Status Habilidade Confiança Observado Última observação Último voto
João Abreu Porto Ativo 109 / 122 40% 4 22.04.2028 -
Ben Broggio Mansfield Town Ativo 109 / 123 40% 3 22.04.2028 -
Rayan Demirci Porto Ativo 91 / 98 40% 2 22.04.2028 -
Leo Pecover Swindon Town Ativo 92 / 106 40% 3 20.04.2028 -
Luca Meirelles Kudrivka Ativo 125 / 124 40% 6 20.04.2028 -
Noah Fernandez PSV Ativo 118 / 136 40% 2 20.04.2028 -
Omar Khedr Gillingham Ativo 115 / 127 40% 3 19.04.2028 -
Eduardo Fernandes Benfica Ativo 124 / 131 40% 1 19.04.2028 -
Alphadjo Cissé Lecce Ativo 131 / 133 40% 2 17.04.2028 -
Jamal Iddrissou Pergolettese Ativo 109 / 121 40% 1 17.04.2028 -
Gomolemo Kekana Maritzburg United Ativo 124 / 130 40% 3 16.04.2028 -
Kerim Alajbegović Modena Ativo 129 / 137 40% 3 14.04.2028 -
Amin Nabizada Exeter City Ativo 109 / 112 40% 2 14.04.2028 -
Tomás Peixoto Porto Ativo 92 / 106 40% 1 14.04.2028 -
Luighi Palmeiras Ativo 111 / 115 40% 2 12.04.2028 -
Lamine Bèye Portimonense Ativo 115 / 128 40% 1 12.04.2028 -
Jake Evans Crewe Alexandra Ativo 117 / 121 40% 5 11.04.2028 -
Luca Williams-Barnett Walsall Ativo 124 / 135 40% 1 11.04.2028 -
Yuri Leles Bragantino Ativo 111 / 122 40% 1 11.04.2028 -
Nicolas Sport Recife Ativo 108 / 106 40% 3 10.04.2028 -
Josh Nichols Oldham Athletic Ativo 118 / 131 40% 4 10.04.2028 -
Amine Boukamir Charleroi Ativo 100 / 106 40% 2 10.04.2028 -
Thulani Manyama SuperSport United Ativo 118 / 108 40% 1 10.04.2028 -
Nathan De Cat SC Freiburg Ativo 132 / 130 40% 1 10.04.2028 -
Shea Lacey Crystal Palace Ativo 130 / 133 40% 3 07.04.2028 -
Fabiano Epicentr Ativo 109 / 91 40% 2 07.04.2028 -
Dânio Djassi Portimonense Ativo 115 / 115 40% 3 06.04.2028 -
Ibrahim Fullah Charlton Athletic Ativo 122 / 117 40% 1 05.04.2028 -
Peter Amidu Acquah Asante Kotoko Ativo 100 / 110 40% 1 05.04.2028 -
Nana Nuhu WAFA Ativo 94 / 88 40% 1 05.04.2028 -
Oscar Schwartau Norwich City Ativo 135 / 133 40% 4 03.04.2028 -
Francisco Fernandes Porto Ativo 98 / 104 40% 1 03.04.2028 -
Thijs Kraaijeveld USM Alger Ativo 124 / 110 40% 1 03.04.2028 -
Matvey Bardachev Zenit Ativo 103 / 108 40% 1 03.04.2028 -
Vinícius Lira São Paulo Ativo 123 / 132 40% 5 01.04.2028 -
Paulo Iago Sporting CP Ativo 100 / 110 40% 3 01.04.2028 -
Ryan McAidoo Oldham Athletic Ativo 120 / 135 40% 2 30.03.2028 -
André Miranda Porto Ativo 116 / 127 40% 2 30.03.2028 -
Igor Tyjon Barrow AFC Ativo 119 / 113 40% 2 30.03.2028 -
Vlad Pacos de Ferreira Ativo 100 / 115 40% 3 29.03.2028 -
Martim Cunha Porto Ativo 114 / 114 40% 1 28.03.2028 -
Sidiki Chérif Newcastle United Ativo 130 / 137 40% 1 27.03.2028 -
Rafael Camacho Sporting CP Ativo 106 / 105 40% 1 26.03.2028 -
Giovanni Cantizano Fulham Ativo 121 / 133 40% 1 23.03.2028 -
Henrique Carmo Sochi Ativo 133 / 137 40% 1 22.03.2028 -
Alwande Booysen SuperSport United Ativo 103 / 94 40% 1 20.03.2028 -
Gabriele Bertolini Vicenza Ativo 100 / 110 40% 1 18.03.2028 -
Bernardo Lima Porto Ativo 113 / 109 40% 1 18.03.2028 -
Lwanda Mbanjwa Platinum Stars Ativo 108 / 114 40% 1 17.03.2028 -
Lander Astiazarán Real Sociedad Ativo 113 / 114 40% 1 15.03.2028 -
Christ Wawa Gefle Ativo 104 / 115 40% 2 07.03.2028 -
Siyabonga Mabena Bidvest Wits Ativo 122 / 114 40% 1 07.03.2028 -
Tyler Fletcher Rotherham United Ativo 115 / 122 40% 1 06.03.2028 -
Gabe Forsyth Colchester United Ativo 105 / 111 40% 1 06.03.2028 -
Xavier Jodamus Jomo Cosmos Ativo 84 / 74 40% 1 06.03.2028 -
Colin Guske Orlando City Ativo 89 / 100 40% 1 01.02.2028 -
Matias Siltanen Malmo FF Ativo 133 / 128 40% 1 01.02.2028 -
Daniel Banjaqui Benfica Ativo 121 / 123 40% 1 01.02.2028 -
Matías Arias Vélez Ativo 114 / 118 40% 3 10.01.2028 -
Jeremías Merlo Gimnasia La Plata Ativo 129 / 127 40% 2 10.01.2028 -
Pedro Baltika Ativo 146 / 129 40% 1 10.01.2028 -
Alex Verón Vélez Ativo 117 / 123 40% 2 06.01.2028 -
Kiko Pereira Chaves Ativo 93 / 93 72% 1 06.01.2028 Aprovar
Luka Andrade Montevideo City Torque Negociando 104 / 104 40% 1 06.01.2028 -
Mao Hosoya Santos Negociando 134 / 135 67% 1 01.01.2028 Aprovar
John Mercado Sparta Prague Perdido 122 / 123 67% 1 01.01.2028 Aprovar
Alex Amaefula Kun Khalifat Ativo 82 / 93 40% 2 26.11.2027 -
Victor Hernandez Santa Fe Ativo 125 / 121 40% 2 26.11.2027 -
Nupe Godstime Bayelsa United Ativo 92 / 86 40% 2 22.11.2027 -
Rémi Himbert AC Ajaccio Ativo 110 / 123 40% 1 22.11.2027 -
Agustín De la Cuesta Racing Ativo 111 / 124 40% 1 22.11.2027 -
Kaique Kenji Fortaleza Ativo 120 / 125 40% 3 20.11.2027 -
Chimobi Igwilo Rangers International Ativo 90 / 87 40% 1 20.11.2027 -
Erick Belé Palmeiras Ativo 106 / 100 40% 3 18.11.2027 -
Léo Llaneros Ativo 77 / 85 40% 2 18.11.2027 -
Albert Aleksanjan IFK Norrkoping Ativo 96 / 86 40% 2 17.11.2027 -
Abdulrahman Hamisu Niger Tornadoes Ativo 89 / 85 40% 1 17.11.2027 -
Hassan Beja AFC Leopards Ativo 91 / 100 40% 2 16.11.2027 -
Idris Ajiya Nasarawa United Ativo 89 / 86 40% 1 16.11.2027 -
Joel Ezra Enyimba Ativo 95 / 100 40% 3 15.11.2027 -
Musa Malik Ikorodu City Ativo 94 / 103 40% 2 14.11.2027 -
Bryan Caicedo Leones Ativo 104 / 102 40% 1 13.11.2027 -
Lucas Camejo River Plate Ativo 81 / 88 40% 2 10.11.2027 -
Juan Rodríguez Cerro Largo Ativo 94 / 95 40% 1 08.11.2027 -
Emmanuel Ndubueze Shooting Stars Ativo 94 / 85 40% 1 08.11.2027 -
Rafael Moreno Atletico Venezuela Ativo 110 / 107 40% 1 08.11.2027 -
Mfundo Vilakazi Free State Stars Ativo 124 / 141 40% 1 07.11.2027 -
David Eke Enyimba Ativo 95 / 96 40% 1 05.11.2027 -
Giovanni Baroni Talleres Ativo 111 / 119 40% 1 04.11.2027 -
Mustapha Umar Kano Pillars Ativo 87 / 97 40% 1 04.11.2027 -
Bautista Carboni Defensores Unidos Ativo 101 / 113 40% 1 03.11.2027 -
Mathias Kvistgaarden Norwich City Ativo 126 / 127 40% 1 14.06.2027 -
Richard Koné Queens Park Rangers Ativo 119 / 115 40% 1 14.06.2027 -
Scott Twine Bristol City Ativo 122 / 122 40% 3 30.05.2027 -
Brooke Norton-Cuffy Hull City Ativo 133 / 145 40% 3 30.05.2027 -
Lewis Bate Stockport County Ativo 126 / 133 40% 1 30.05.2027 -
Harry Clarke Preston Ativo 124 / 122 40% 4 27.05.2027 -
Derensili Sanches Fernandes Huddersfield Town Ativo 126 / 134 40% 4 27.05.2027 -
Tomáš Rigo Stoke City Ativo 125 / 135 40% 2 25.05.2027 -
Samuel Edozie Southampton Ativo 128 / 136 40% 4 25.05.2027 -
Cian Ashford Cardiff City Ativo 120 / 119 40% 5 24.05.2027 -
Ole Pohlmann Rio Ave Ativo 122 / 127 40% 3 24.05.2027 -
Malik Mothersille Stockport County Ativo 120 / 107 40% 1 24.05.2027 -
Jacques Ekomié Wrexham Ativo 131 / 125 40% 2 20.05.2027 -
Martin Baturina Como Ativo 136 / 134 40% 1 20.05.2027 -
Tyrese Campbell Sheffield United Ativo 129 / 133 40% 5 16.05.2027 -
Jason Knight Bristol City Ativo 132 / 138 40% 3 16.05.2027 -
Jack McGlynn Stoke City Ativo 126 / 131 40% 1 15.05.2027 -
David Turnbull Cardiff City Ativo 119 / 110 40% 1 15.05.2027 -
Florentino Luís Ipswich Town Ativo 136 / 144 40% 3 12.05.2027 -
Joel Bagan Cardiff City Ativo 110 / 108 40% 2 12.05.2027 -
Declan Frith Peterborough United Ativo 107 / 104 40% 1 12.05.2027 -
Gustavo Silva Vitoria Guimaraes Ativo 119 / 132 40% 2 11.05.2027 -
Toby Collyer West Bromwich Albion Ativo 133 / 141 40% 1 10.05.2027 -
Lorougnon Gohi Académico de Viseu Ativo 123 / 113 40% 3 07.05.2027 -
Jack Rudoni Coventry City Ativo 132 / 124 40% 3 05.05.2027 -
Daniel Kyerewaa Reading Ativo 112 / 107 40% 1 05.05.2027 -
Jackson Muleka Konyaspor Ativo 122 / 121 40% 3 04.05.2027 -
Isaiah Jones Luton Town Ativo 121 / 115 40% 4 02.05.2027 -
Tyreece Campbell Charlton Athletic Ativo 120 / 129 40% 2 02.05.2027 -
Bongani Zungu Ajax Cape Town Ativo 136 / 133 40% 3 01.05.2027 -
Juan Bezerra Zamalek Ativo 123 / 110 40% 5 01.05.2027 -
Dale Taylor Blackpool Ativo 114 / 110 40% 3 30.04.2027 -
Rafik Guitane Estoril Praia Ativo 133 / 127 40% 4 30.04.2027 -
Ar'jany Martha Rotherham United Ativo 116 / 107 40% 2 28.04.2027 -
Joe Gelhardt Hull City Ativo 140 / 137 40% 4 27.04.2027 -
Aidan Morris Middlesbrough Ativo 128 / 136 40% 1 27.04.2027 -
Bobby Clark Derby County Ativo 120 / 123 40% 3 24.04.2027 -
Yanis Begraoui Estoril Praia Ativo 140 / 130 40% 2 23.04.2027 -
Welington Southampton Ativo 127 / 126 40% 2 23.04.2027 -
Brenner Santa Clara Ativo 119 / 120 40% 1 22.04.2027 -
Finn Azaz Southampton Ativo 128 / 135 40% 4 20.04.2027 -
Bosun Lawal Stoke City Ativo 134 / 132 40% 1 20.04.2027 -
Manu Pozo Torreense Ativo 125 / 115 40% 1 19.04.2027 -
Themba Williams Ajax Cape Town Ativo 129 / 134 40% 1 17.04.2027 -
Oliver Skipp Leicester City Ativo 126 / 130 40% 1 17.04.2027 -
Mohamed-Ali Cho Hull City Ativo 135 / 143 40% 2 14.04.2027 -
Santi García Gil Vicente Ativo 130 / 142 40% 3 12.04.2027 -
Koki Saito Queens Park Rangers Ativo 127 / 130 40% 1 11.04.2027 -
Alex Robertson Cardiff City Ativo 120 / 120 40% 2 08.04.2027 -
Kwadwo Baah Watford Ativo 127 / 136 40% 2 07.04.2027 -
João Mendes Vitoria Guimaraes Ativo 116 / 120 40% 1 06.04.2027 -
Ilias Sebaoui Sint-Truiden Ativo 122 / 124 40% 2 01.04.2027 -
Marcelo Allende Mamelodi Sundowns Ativo 135 / 130 40% 2 29.03.2027 -
Max Bird Birmingham Ativo 131 / 126 40% 2 29.03.2027 -
Ali Ahmed Norwich City Ativo 126 / 129 40% 1 29.03.2027 -
Andre Brooks Sheffield United Ativo 130 / 126 40% 4 27.03.2027 -
Ilyas Ansah Hull City Ativo 133 / 134 40% 3 24.03.2027 -
Lee Hyun-Ju Arouca Ativo 120 / 118 40% 1 24.03.2027 -
Mateja Stjepanović Moreirense Ativo 125 / 132 40% 1 20.03.2027 -
Milan van Ewijk Coventry City Ativo 128 / 133 40% 1 20.03.2027 -
Malik Sellouki Rio Ave Ativo 114 / 120 40% 2 13.03.2027 -
Peter Federico Gornik Zabrze Ativo 135 / 125 40% 1 13.03.2027 -
Gianluca Prestianni Benfica Ativo 134 / 149 40% 2 08.03.2027 -
Luis Quintero Torreense Ativo 133 / 127 40% 1 06.03.2027 -
Tomás Pérez Porto Ativo 113 / 130 72% 1 25.01.2027 Aprovar
Sampson Dweh Mallorca Negociando 133 / 134 66% 1 01.01.2027 Aprovar
Jefry Zapata Aldosivi Negociando 118 / 118 66% 1 01.01.2027 -
Lucas Varaldo Morelia Ativo 126 / 119 40% 1 25.12.2026 -
Sam Greenwood Bristol City Ativo 115 / 130 40% 1 24.12.2026 -
Bongani Jali Free State Stars Ativo 91 / 119 40% 1 24.12.2026 -
Justo Giani Umraniyespor Ativo 127 / 109 40% 2 21.12.2026 -
Sorriso Famalicao Ativo 123 / 136 40% 2 19.12.2026 -
Fiete Arp OB Ativo 138 / 114 40% 1 17.12.2026 -
Rocco Vata Watford Ativo 114 / 138 40% 1 16.12.2026 -
Peter Valjent FK Senica Ativo 118 / 112 40% 1 16.12.2026 -
Giorgi Kvernadze Frosinone Ativo 123 / 116 40% 1 16.12.2026 -
Tamble Monteiro Rio Ave Ativo 116 / 109 40% 1 13.12.2026 Mais informações
Veljko Radosavljević Cukaricki Ativo 91 / 111 40% 1 13.12.2026 -
Caleb Yirenkyi Coventry City Ativo 129 / 143 40% 1 13.12.2026 -
Vinícius Lopes Santa Clara Ativo 122 / 123 40% 1 10.12.2026 -
Patrick Agyemang Derby County Ativo 119 / 123 40% 1 10.12.2026 -
Yousef Salech Cardiff City Ativo 133 / 135 40% 1 10.12.2026 -
Ethan Williams Peterborough United Ativo 117 / 119 40% 1 10.12.2026 -
Eddie Nketiah Crystal Palace Ativo 135 / 142 40% 1 08.12.2026 -
Jacques Siwe Rubin Ativo 105 / 120 40% 1 07.12.2026 -
Robert FC Copenhagen Ativo 114 / 120 40% 1 17.08.2026 -
Carlos Vinícius Grêmio Ativo 134 / 129 40% 1 01.08.2026 -
Kyle Wootton Stockport County Ativo 125 / 107 40% 1 01.08.2026 -
Ezequiel Ponce Elche Ativo 134 / 135 40% 1 01.08.2026 -